createdAt,value
2023-04-26T00:00:45.958Z,37.03
2023-04-26T00:03:15.941Z,38.13
2023-04-26T00:05:43.955Z,41.03
2023-04-26T00:08:11.531Z,33.60
2023-04-26T00:10:40.803Z,34.30
2023-04-26T00:13:08.440Z,30.13
2023-04-26T00:15:36.600Z,24.80
2023-04-26T00:18:04.146Z,29.27
2023-04-26T00:20:32.079Z,22.73
2023-04-26T00:22:59.614Z,20.90
2023-04-26T00:25:27.393Z,24.00
2023-04-26T00:27:54.815Z,17.43
2023-04-26T00:30:22.573Z,21.60
2023-04-26T00:32:50.477Z,21.50
2023-04-26T00:35:18.291Z,19.70
2023-04-26T00:37:46.362Z,12.77
2023-04-26T00:40:16.222Z,17.10
2023-04-26T00:42:43.727Z,14.67
2023-04-26T00:45:11.519Z,9.97
2023-04-26T00:47:39.188Z,16.27
2023-04-26T00:50:08.247Z,18.33
2023-04-26T00:52:36.093Z,17.97
2023-04-26T00:55:03.820Z,24.77
2023-04-26T00:57:31.363Z,17.70
2023-04-26T00:59:59.104Z,14.80
2023-04-26T01:02:27.391Z,17.20
2023-04-26T01:04:55.939Z,12.03
2023-04-26T01:07:23.840Z,15.33
2023-04-26T01:09:51.892Z,16.20
2023-04-26T01:12:19.763Z,14.07
2023-04-26T01:14:47.918Z,15.97
2023-04-26T01:17:16.683Z,13.70
2023-04-26T01:19:48.465Z,16.63
2023-04-26T01:22:16.209Z,17.43
2023-04-26T01:24:46.703Z,13.50
2023-04-26T01:27:14.311Z,18.30
2023-04-26T01:29:42.190Z,12.73
2023-04-26T01:32:10.059Z,12.03
2023-04-26T01:34:37.802Z,10.93
2023-04-26T01:37:05.250Z,11.93
2023-04-26T01:39:32.932Z,14.17
2023-04-26T01:42:00.590Z,14.57
2023-04-26T01:44:28.297Z,21.03
2023-04-26T01:46:56.095Z,21.33
2023-04-26T01:49:25.559Z,20.43
2023-04-26T01:51:55.560Z,14.03
2023-04-26T01:54:25.058Z,9.47
2023-04-26T01:56:53.845Z,22.87
2023-04-26T01:59:21.729Z,13.37
2023-04-26T02:01:49.299Z,13.37
2023-04-26T02:04:17.060Z,14.73
2023-04-26T02:06:45.001Z,22.77
2023-04-26T02:09:12.784Z,10.57
2023-04-26T02:11:41.459Z,15.40
2023-04-26T02:14:09.289Z,11.53
2023-04-26T02:16:36.943Z,14.37
2023-04-26T02:19:05.390Z,11.00
2023-04-26T02:21:33.122Z,16.20
2023-04-26T02:24:00.911Z,10.23
2023-04-26T02:26:28.425Z,9.07
2023-04-26T02:28:56.349Z,13.63
2023-04-26T02:31:23.923Z,11.10
2023-04-26T02:33:51.720Z,8.50
2023-04-26T02:36:19.875Z,8.13
2023-04-26T02:38:47.698Z,15.30
2023-04-26T02:41:15.207Z,10.77
2023-04-26T02:43:42.987Z,12.57
2023-04-26T02:46:11.104Z,18.70
2023-04-26T02:48:39.902Z,8.53
2023-04-26T02:51:08.061Z,8.73
2023-04-26T02:53:35.979Z,12.90
2023-04-26T02:56:03.849Z,13.80
2023-04-26T02:58:31.611Z,13.47
2023-04-26T03:01:01.446Z,10.97
2023-04-26T03:03:31.039Z,14.93
2023-04-26T03:05:58.824Z,17.17
2023-04-26T03:08:26.734Z,8.37
2023-04-26T03:10:54.500Z,15.73
2023-04-26T03:13:24.451Z,10.83
2023-04-26T03:15:53.802Z,11.60
2023-04-26T03:18:22.770Z,13.13
2023-04-26T03:20:50.802Z,13.53
2023-04-26T03:23:18.714Z,12.57
2023-04-26T03:25:47.045Z,11.40
2023-04-26T03:28:14.805Z,10.50
2023-04-26T03:30:42.908Z,12.23
2023-04-26T03:33:11.136Z,13.83
2023-04-26T03:35:38.633Z,14.53
2023-04-26T03:38:06.557Z,11.13
2023-04-26T03:40:34.059Z,13.47
2023-04-26T03:43:02.516Z,14.47
2023-04-26T03:45:30.153Z,11.63
2023-04-26T03:47:58.105Z,15.77
2023-04-26T03:50:25.822Z,14.53
2023-04-26T03:52:53.382Z,13.60
2023-04-26T03:55:20.677Z,12.37
2023-04-26T03:57:48.469Z,11.60
2023-04-26T04:00:16.400Z,16.83
2023-04-26T04:02:45.108Z,19.33
2023-04-26T04:05:21.068Z,11.63
2023-04-26T04:07:48.767Z,11.03
2023-04-26T04:10:16.632Z,14.57
2023-04-26T04:12:45.294Z,12.43
2023-04-26T04:15:12.734Z,10.83
2023-04-26T04:17:45.172Z,11.43
2023-04-26T04:20:13.374Z,14.77
2023-04-26T04:22:41.452Z,14.93
2023-04-26T04:25:10.590Z,13.10
2023-04-26T04:27:39.437Z,9.33
2023-04-26T04:30:09.661Z,12.47
2023-04-26T04:32:38.112Z,11.10
2023-04-26T04:35:07.490Z,15.03
2023-04-26T04:37:35.789Z,16.87
2023-04-26T04:40:04.590Z,13.27
2023-04-26T04:42:35.031Z,11.43
2023-04-26T04:45:05.471Z,16.73
2023-04-26T04:47:37.858Z,10.27
2023-04-26T04:50:07.140Z,12.83
2023-04-26T04:52:34.788Z,16.43
2023-04-26T04:55:02.114Z,13.93
2023-04-26T04:57:30.307Z,8.93
2023-04-26T04:59:58.407Z,10.30
2023-04-26T05:02:27.689Z,8.23
2023-04-26T05:04:56.091Z,14.43
2023-04-26T05:07:24.603Z,9.27
2023-04-26T05:09:53.866Z,10.83
2023-04-26T05:12:21.879Z,11.30
2023-04-26T05:14:49.220Z,10.07
2023-04-26T05:17:16.740Z,9.37
2023-04-26T05:19:44.562Z,19.03
2023-04-26T05:22:18.575Z,14.03
2023-04-26T05:24:47.587Z,13.77
2023-04-26T05:27:15.984Z,14.83
2023-04-26T05:30:06.478Z,14.13
2023-04-26T05:32:57.326Z,11.90
2023-04-26T05:35:34.613Z,11.83
2023-04-26T05:38:02.069Z,11.40
2023-04-26T05:40:29.992Z,8.07
2023-04-26T05:42:57.406Z,12.07
2023-04-26T05:45:26.553Z,13.70
2023-04-26T05:47:54.014Z,11.80
2023-04-26T05:50:21.449Z,15.63
2023-04-26T05:52:48.799Z,10.03
2023-04-26T05:55:16.154Z,11.37
2023-04-26T05:57:44.349Z,11.13
2023-04-26T06:00:12.598Z,11.73
2023-04-26T06:02:43.707Z,14.10
2023-04-26T06:05:16.071Z,13.50
2023-04-26T06:07:44.796Z,20.57
2023-04-26T06:10:13.179Z,8.57
2023-04-26T06:12:42.139Z,9.00
2023-04-26T06:15:10.172Z,13.50
2023-04-26T06:17:40.605Z,10.30
2023-04-26T06:20:12.083Z,8.87
2023-04-26T06:22:39.717Z,9.53
2023-04-26T06:25:08.147Z,12.37
2023-04-26T06:27:39.183Z,14.33
2023-04-26T06:30:07.975Z,11.37
2023-04-26T06:32:39.359Z,12.77
2023-04-26T06:35:07.158Z,9.03
2023-04-26T06:37:35.299Z,7.53
2023-04-26T06:40:02.784Z,10.20
2023-04-26T06:42:31.376Z,9.90
2023-04-26T06:45:30.961Z,11.30
2023-04-26T06:48:00.901Z,10.47
2023-04-26T06:50:28.442Z,8.17
2023-04-26T06:52:56.333Z,14.20
2023-04-26T06:55:24.087Z,6.60
2023-04-26T06:57:51.467Z,11.77
2023-04-26T07:00:19.098Z,9.23
2023-04-26T07:02:46.852Z,11.40
2023-04-26T07:05:15.474Z,6.68
2023-04-26T07:07:43.190Z,14.35
2023-04-26T07:10:11.308Z,9.82
2023-04-26T07:12:38.992Z,10.50
2023-04-26T07:15:09.689Z,9.60
2023-04-26T07:17:37.189Z,11.27
2023-04-26T07:20:04.947Z,10.05
2023-04-26T07:22:32.876Z,12.73
2023-04-26T07:24:59.968Z,8.40
2023-04-26T07:27:27.313Z,8.13
2023-04-26T07:29:56.199Z,14.88
2023-04-26T07:32:23.776Z,13.38
2023-04-26T07:34:50.871Z,10.85
2023-04-26T07:37:18.281Z,9.32
2023-04-26T07:39:45.684Z,12.93
2023-04-26T07:42:13.485Z,12.93
2023-04-26T07:44:40.736Z,11.55
2023-04-26T07:47:14.491Z,10.05
2023-04-26T07:49:42.163Z,14.13
2023-04-26T07:52:09.763Z,12.23
2023-04-26T07:54:37.253Z,9.98
2023-04-26T07:57:04.593Z,7.10
2023-04-26T07:59:31.728Z,11.63
2023-04-26T08:01:59.169Z,7.57
2023-04-26T08:04:36.666Z,5.03
2023-04-26T08:07:04.248Z,7.78
2023-04-26T08:09:31.502Z,5.88
2023-04-26T08:11:59.087Z,5.53
2023-04-26T08:14:26.265Z,8.63
2023-04-26T08:16:53.732Z,6.63
2023-04-26T08:19:21.772Z,12.35
2023-04-26T08:21:49.552Z,6.88
2023-04-26T08:24:16.617Z,9.27
2023-04-26T08:26:44.030Z,5.65
2023-04-26T08:29:11.098Z,6.43
2023-04-26T08:31:38.768Z,8.57
2023-04-26T08:34:06.423Z,7.87
2023-04-26T08:36:37.216Z,10.70
2023-04-26T08:39:05.056Z,8.55
2023-04-26T08:41:36.887Z,42.85
2023-04-26T08:44:08.451Z,13.63
2023-04-26T08:46:52.338Z,18.25
2023-04-26T08:49:40.039Z,19.50
2023-04-26T08:52:12.810Z,38.78
2023-04-26T08:54:40.936Z,21.52
2023-04-26T08:57:08.851Z,15.15
2023-04-26T08:59:39.691Z,12.23
2023-04-26T09:02:08.121Z,19.23
2023-04-26T09:04:36.261Z,10.25
2023-04-26T09:07:07.352Z,21.02
2023-04-26T09:09:42.574Z,13.52
2023-04-26T09:12:09.961Z,15.60
2023-04-26T09:14:38.762Z,14.67
2023-04-26T09:17:06.341Z,16.27
2023-04-26T09:19:38.727Z,15.90
2023-04-26T09:22:06.690Z,11.83
2023-04-26T09:24:52.253Z,8.93
2023-04-26T09:27:20.808Z,11.20
2023-04-26T09:30:11.045Z,10.23
2023-04-26T09:33:00.893Z,9.03
2023-04-26T09:35:32.862Z,10.43
2023-04-26T09:38:19.742Z,13.23
2023-04-26T09:40:50.665Z,8.20
2023-04-26T09:43:20.749Z,11.30
2023-04-26T09:45:50.633Z,12.23
2023-04-26T09:48:26.243Z,17.53
2023-04-26T09:50:55.637Z,18.73
2023-04-26T09:53:37.283Z,14.07
2023-04-26T09:56:10.709Z,8.83
2023-04-26T09:58:40.762Z,11.48
2023-04-26T10:01:09.299Z,17.80
2023-04-26T10:03:38.142Z,6.45
2023-04-26T10:06:06.711Z,11.27
2023-04-26T10:08:34.413Z,10.52
2023-04-26T10:11:02.345Z,9.95
2023-04-26T10:13:32.440Z,9.40
2023-04-26T10:16:01.752Z,8.65
2023-04-26T10:18:30.552Z,5.82
2023-04-26T10:21:02.274Z,8.40
2023-04-26T10:23:30.249Z,8.57
2023-04-26T10:25:57.826Z,15.10
2023-04-26T10:28:40.673Z,7.20
2023-04-26T10:31:07.894Z,7.60
2023-04-26T10:33:35.527Z,6.88
2023-04-26T10:36:13.423Z,7.45
2023-04-26T10:39:02.312Z,9.88
2023-04-26T10:41:34.897Z,4.55
2023-04-26T10:44:37.593Z,11.20
2023-04-26T10:47:06.733Z,11.23
2023-04-26T10:49:48.400Z,7.97
2023-04-26T10:52:20.641Z,8.65
2023-04-26T10:54:50.265Z,14.57
2023-04-26T10:57:18.341Z,7.22
2023-04-26T11:00:14.560Z,6.47
2023-04-26T11:02:56.471Z,10.73
2023-04-26T11:05:33.134Z,10.53
2023-04-26T11:08:17.181Z,7.67
2023-04-26T11:10:51.165Z,10.87
2023-04-26T11:13:22.091Z,7.67
2023-04-26T11:16:10.739Z,10.77
2023-04-26T11:18:39.654Z,5.25
2023-04-26T11:21:07.323Z,9.03
2023-04-26T11:23:35.785Z,7.40
2023-04-26T11:26:05.968Z,12.80
2023-04-26T11:28:37.107Z,14.07
2023-04-26T11:31:05.585Z,10.00
2023-04-26T11:33:36.408Z,13.43
2023-04-26T11:36:04.354Z,8.47
2023-04-26T11:38:31.855Z,9.87
2023-04-26T11:41:00.943Z,12.93
2023-04-26T11:43:39.011Z,7.50
2023-04-26T11:46:07.853Z,7.17
2023-04-26T11:48:36.835Z,16.10
2023-04-26T11:51:06.102Z,20.20
2023-04-26T11:53:43.297Z,20.27
2023-04-26T11:56:22.068Z,27.42
2023-04-26T11:58:53.320Z,27.48
2023-04-26T12:01:30.842Z,11.80
2023-04-26T12:03:59.529Z,10.80
2023-04-26T12:06:42.796Z,13.38
2023-04-26T12:09:11.597Z,9.55
2023-04-26T12:11:39.843Z,8.55
2023-04-26T12:14:11.575Z,11.70
2023-04-26T12:16:38.976Z,20.63
2023-04-26T12:19:07.763Z,8.73
2023-04-26T12:21:43.035Z,9.50
2023-04-26T12:24:24.251Z,9.23
2023-04-26T12:26:52.278Z,7.30
2023-04-26T12:29:19.385Z,4.65
2023-04-26T12:31:47.252Z,7.78
2023-04-26T12:34:16.949Z,9.23
2023-04-26T12:36:44.672Z,21.27
2023-04-26T12:39:13.702Z,25.15
2023-04-26T12:41:41.894Z,14.13
2023-04-26T12:44:09.853Z,18.67
2023-04-26T12:46:37.909Z,16.80
2023-04-26T12:49:05.319Z,8.25
2023-04-26T12:51:33.897Z,10.55
2023-04-26T12:54:01.586Z,5.78
2023-04-26T12:56:29.697Z,7.57
2023-04-26T12:58:57.261Z,5.63
2023-04-26T13:01:25.273Z,4.33
2023-04-26T13:03:53.204Z,8.10
2023-04-26T13:06:21.306Z,17.90
2023-04-26T13:08:48.502Z,15.93
2023-04-26T13:11:19.133Z,8.98
2023-04-26T13:13:46.447Z,9.63
2023-04-26T13:16:14.568Z,10.35
2023-04-26T13:18:42.085Z,9.82
2023-04-26T13:21:09.632Z,9.73
2023-04-26T13:23:36.880Z,5.95
2023-04-26T13:26:04.362Z,8.00
2023-04-26T13:28:31.640Z,8.60
2023-04-26T13:30:59.711Z,13.43
2023-04-26T13:33:27.343Z,11.30
2023-04-26T13:35:54.984Z,17.93
2023-04-26T13:38:22.415Z,15.73
2023-04-26T13:40:49.833Z,12.75
2023-04-26T13:43:17.069Z,13.00
2023-04-26T13:45:44.951Z,21.67
2023-04-26T13:48:12.690Z,8.30
2023-04-26T13:50:40.833Z,10.52
2023-04-26T13:53:08.400Z,13.85
2023-04-26T13:55:35.911Z,5.20
2023-04-26T13:58:03.111Z,15.13
2023-04-26T14:00:30.578Z,11.30
2023-04-26T14:02:59.041Z,12.27
2023-04-26T14:05:26.641Z,17.30
2023-04-26T14:07:55.178Z,75.80
2023-04-26T14:10:23.508Z,61.58
2023-04-26T14:12:51.146Z,76.22
2023-04-26T14:15:18.708Z,153.43
2023-04-26T14:17:47.116Z,30.98
2023-04-26T14:20:14.807Z,25.87
2023-04-26T14:22:42.020Z,48.50
2023-04-26T14:25:09.924Z,50.20
2023-04-26T14:27:38.170Z,23.80
2023-04-26T14:30:06.024Z,19.47
2023-04-26T14:32:33.524Z,24.53
2023-04-26T14:35:00.810Z,17.73
2023-04-26T14:37:28.465Z,18.30
2023-04-26T14:39:55.713Z,13.43
2023-04-26T14:42:23.180Z,30.35
2023-04-26T14:44:50.749Z,13.27
2023-04-26T14:47:18.126Z,12.18
2023-04-26T14:49:45.397Z,9.40
2023-04-26T14:52:12.782Z,24.10
2023-04-26T14:54:40.656Z,13.77
2023-04-26T14:57:08.852Z,16.00
2023-04-26T14:59:36.647Z,19.90
2023-04-26T15:02:05.168Z,11.77
2023-04-26T15:04:32.929Z,13.00
2023-04-26T15:07:01.346Z,9.00
2023-04-26T15:09:30.381Z,16.60
2023-04-26T15:11:58.253Z,12.23
2023-04-26T15:14:25.910Z,39.57
2023-04-26T15:16:54.054Z,23.97
2023-04-26T15:19:22.141Z,35.87
2023-04-26T15:21:50.560Z,34.23
2023-04-26T15:24:18.240Z,30.33
2023-04-26T15:26:46.672Z,16.73
2023-04-26T15:29:15.220Z,21.77
2023-04-26T15:31:43.009Z,26.43
2023-04-26T15:34:10.808Z,16.50
2023-04-26T15:36:38.833Z,18.60
2023-04-26T15:39:06.493Z,16.23
2023-04-26T15:41:34.371Z,16.07
2023-04-26T15:44:01.910Z,14.87
2023-04-26T15:46:29.684Z,18.50
2023-04-26T15:48:57.661Z,14.90
2023-04-26T15:51:26.146Z,9.10
2023-04-26T15:53:53.748Z,20.77
2023-04-26T15:56:21.658Z,6.57
2023-04-26T15:58:49.112Z,20.77
2023-04-26T16:01:17.159Z,24.10
2023-04-26T16:03:47.526Z,12.43
2023-04-26T16:06:16.157Z,8.27
2023-04-26T16:08:45.367Z,7.43
2023-04-26T16:11:13.606Z,8.27
2023-04-26T16:13:41.356Z,11.27
2023-04-26T16:16:10.960Z,13.57
2023-04-26T16:18:43.878Z,15.83
2023-04-26T16:21:13.079Z,13.97
2023-04-26T16:23:44.068Z,8.87
2023-04-26T16:26:12.673Z,8.37
2023-04-26T16:28:40.836Z,11.43
2023-04-26T16:31:08.315Z,8.30
2023-04-26T16:33:35.662Z,19.73
2023-04-26T16:36:03.791Z,16.20
2023-04-26T16:38:31.512Z,16.27
2023-04-26T16:41:01.687Z,23.83
2023-04-26T16:43:30.692Z,12.10
2023-04-26T16:46:02.309Z,12.00
2023-04-26T16:48:34.324Z,10.87
2023-04-26T16:51:07.174Z,10.50
2023-04-26T16:53:36.062Z,16.27
2023-04-26T16:56:04.483Z,12.13
2023-04-26T16:58:32.116Z,9.73
2023-04-26T17:00:59.984Z,7.90
2023-04-26T17:03:28.513Z,31.57
2023-04-26T17:05:56.557Z,23.77
2023-04-26T17:08:23.926Z,42.07
2023-04-26T17:10:52.799Z,55.10
2023-04-26T17:13:21.051Z,45.57
2023-04-26T17:15:49.181Z,34.77
2023-04-26T17:18:16.752Z,22.93
2023-04-26T17:20:44.744Z,25.83
2023-04-26T17:23:12.475Z,31.60
2023-04-26T17:25:40.531Z,27.27
2023-04-26T17:28:08.196Z,18.40
2023-04-26T17:30:36.149Z,22.80
2023-04-26T17:33:05.632Z,19.90
2023-04-26T17:35:33.679Z,18.53
2023-04-26T17:38:01.326Z,19.47
2023-04-26T17:40:29.175Z,27.13
2023-04-26T17:42:57.192Z,36.20
2023-04-26T17:45:25.517Z,35.47
2023-04-26T17:47:53.233Z,29.97
2023-04-26T17:50:22.173Z,29.03
2023-04-26T17:52:49.681Z,27.23
2023-04-26T17:55:17.562Z,28.27
2023-04-26T17:57:45.210Z,27.40
2023-04-26T18:00:13.925Z,35.03
2023-04-26T18:02:43.287Z,33.90
2023-04-26T18:05:11.899Z,41.50
2023-04-26T18:07:39.643Z,33.57
2023-04-26T18:10:08.156Z,34.43
2023-04-26T18:12:36.449Z,16.30
2023-04-26T18:15:04.377Z,12.37
2023-04-26T18:17:31.869Z,24.43
2023-04-26T18:19:59.876Z,26.13
2023-04-26T18:22:27.625Z,39.13
2023-04-26T18:24:55.219Z,27.20
2023-04-26T18:27:22.900Z,21.97
2023-04-26T18:29:51.144Z,14.23
2023-04-26T18:32:18.794Z,14.70
2023-04-26T18:34:46.867Z,9.77
2023-04-26T18:37:14.793Z,10.17
2023-04-26T18:39:42.859Z,13.23
2023-04-26T18:42:10.929Z,19.63
2023-04-26T18:44:39.091Z,16.30
2023-04-26T18:47:06.990Z,19.53
2023-04-26T18:49:35.008Z,15.57
2023-04-26T18:52:03.133Z,11.43
2023-04-26T18:54:32.262Z,12.83
2023-04-26T18:57:01.340Z,12.80
2023-04-26T18:59:31.426Z,18.50
2023-04-26T19:01:59.313Z,12.03
2023-04-26T19:04:27.741Z,8.10
2023-04-26T19:06:55.810Z,14.60
2023-04-26T19:09:23.730Z,10.00
2023-04-26T19:11:51.430Z,12.20
2023-04-26T19:14:19.312Z,8.03
2023-04-26T19:16:47.201Z,11.63
2023-04-26T19:19:15.311Z,33.07
2023-04-26T19:21:43.325Z,15.60
2023-04-26T19:24:11.468Z,9.17
2023-04-26T19:26:38.877Z,10.30
2023-04-26T19:29:07.123Z,6.83
2023-04-26T19:31:35.112Z,136.10
2023-04-26T19:34:03.961Z,98.60
2023-04-26T19:36:31.831Z,45.53
2023-04-26T19:38:59.727Z,45.10
2023-04-26T19:41:27.691Z,44.70
2023-04-26T19:43:56.645Z,36.33
2023-04-26T19:46:24.341Z,49.93
2023-04-26T19:48:52.184Z,31.43
2023-04-26T19:51:19.711Z,18.47
2023-04-26T19:53:47.876Z,10.73
2023-04-26T19:56:15.720Z,11.37
2023-04-26T19:58:43.736Z,8.83
2023-04-26T20:01:11.712Z,9.83
2023-04-26T20:03:41.739Z,10.97
2023-04-26T20:06:10.586Z,8.53
2023-04-26T20:08:38.134Z,9.20
2023-04-26T20:11:05.766Z,6.60
2023-04-26T20:13:34.211Z,11.10
2023-04-26T20:16:01.782Z,11.60
2023-04-26T20:18:29.484Z,16.30
2023-04-26T20:20:56.739Z,11.80
2023-04-26T20:23:24.193Z,15.33
2023-04-26T20:25:52.046Z,7.43
2023-04-26T20:28:20.495Z,7.93
2023-04-26T20:30:47.852Z,7.23
2023-04-26T20:33:15.341Z,11.60
2023-04-26T20:35:42.846Z,10.00
2023-04-26T20:38:10.992Z,11.37
2023-04-26T20:40:38.437Z,8.10
2023-04-26T20:43:06.370Z,10.67
2023-04-26T20:45:33.527Z,16.90
2023-04-26T20:48:01.551Z,18.20
2023-04-26T20:50:28.942Z,16.97
2023-04-26T20:52:56.555Z,16.70
2023-04-26T20:55:24.059Z,14.50
2023-04-26T20:57:51.928Z,13.20
2023-04-26T21:00:19.715Z,13.70
2023-04-26T21:02:47.351Z,14.30
2023-04-26T21:05:15.008Z,14.83
2023-04-26T21:07:42.400Z,13.67
2023-04-26T21:10:10.192Z,9.93
2023-04-26T21:12:38.230Z,19.47
2023-04-26T21:15:06.096Z,22.17
2023-04-26T21:17:35.423Z,25.77
2023-04-26T21:20:03.183Z,19.20
2023-04-26T21:22:31.225Z,18.43
2023-04-26T21:24:58.943Z,12.50
2023-04-26T21:27:26.996Z,12.30
2023-04-26T21:29:54.082Z,12.70
2023-04-26T21:32:21.468Z,8.97
2023-04-26T21:34:48.558Z,13.10
2023-04-26T21:37:16.840Z,9.17
2023-04-26T21:39:43.978Z,11.27
2023-04-26T21:42:11.749Z,14.57
2023-04-26T21:44:38.856Z,13.37
2023-04-26T21:47:06.473Z,15.40
2023-04-26T21:49:34.703Z,12.07
2023-04-26T21:52:02.064Z,18.07
2023-04-26T21:54:29.161Z,17.57
2023-04-26T21:56:56.552Z,13.90
2023-04-26T21:59:23.702Z,14.00
2023-04-26T22:01:51.142Z,13.73
2023-04-26T22:04:18.606Z,10.10
2023-04-26T22:06:46.066Z,16.50
2023-04-26T22:09:13.805Z,15.60
2023-04-26T22:11:41.566Z,11.83
2023-04-26T22:14:08.867Z,10.80
2023-04-26T22:16:36.283Z,15.53
2023-04-26T22:19:03.368Z,15.10
2023-04-26T22:21:32.321Z,10.53
2023-04-26T22:23:59.970Z,14.47
2023-04-26T22:26:27.451Z,14.83
2023-04-26T22:28:54.544Z,11.90
2023-04-26T22:31:21.947Z,11.50
2023-04-26T22:33:49.122Z,12.13
2023-04-26T22:36:16.873Z,13.47
2023-04-26T22:38:43.962Z,13.20
2023-04-26T22:41:11.556Z,12.23
2023-04-26T22:43:41.536Z,14.67
2023-04-26T22:46:08.896Z,13.73
2023-04-26T22:48:36.059Z,16.37
2023-04-26T22:51:03.491Z,10.93
2023-04-26T22:53:30.731Z,16.43
2023-04-26T22:55:58.049Z,16.23
2023-04-26T22:58:25.626Z,13.23
2023-04-26T23:00:53.053Z,13.83
2023-04-26T23:03:20.743Z,10.73
2023-04-26T23:05:49.785Z,15.90
2023-04-26T23:08:17.078Z,18.07
2023-04-26T23:10:44.351Z,14.80
2023-04-26T23:13:11.369Z,15.50
2023-04-26T23:15:39.282Z,17.47
2023-04-26T23:18:06.379Z,16.07
2023-04-26T23:20:34.121Z,17.90
2023-04-26T23:23:01.571Z,14.20
2023-04-26T23:25:29.380Z,13.20
2023-04-26T23:27:56.857Z,19.50
2023-04-26T23:30:24.582Z,19.50
2023-04-26T23:32:52.103Z,22.33
2023-04-26T23:35:20.097Z,29.90
2023-04-26T23:37:47.557Z,31.10
2023-04-26T23:40:14.912Z,24.97
2023-04-26T23:42:42.363Z,23.03
2023-04-26T23:45:10.512Z,24.97
2023-04-26T23:48:02.975Z,14.03
2023-04-26T23:50:30.790Z,18.77
2023-04-26T23:52:58.262Z,19.40
2023-04-26T23:55:25.988Z,18.27
2023-04-26T23:57:53.519Z,17.20
